CSZ9239 ZGSZ-ZLLL
Flight info
| Callsign | CSZ9239 |
|---|---|
| Flight time | 3h 15m |
| Altitude | 38100 |
| Route | MIPAG W21 TEPID W24 OSNOV G586 QP B330 ELKAL W179 OMBON W195 ORUNA |
| Aircraft | A20N/M-SDE2E3FGHIRWXY/LB1 |
Departure
| Time | 2026-04-14 05:47 |
|---|---|
| Airport | Shenzhen Bao'an International Airport (ZGSZ) |
Arrival
| Time | 2026-04-14 09:02 |
|---|---|
| Airport | Lanzhou Zhongchuan International Airport (ZLLL) |
| Time | Latitude | Longitude | Altitude | Speed | Heading |
|---|---|---|---|---|---|
| 2026-04-14 04:46 | 22.63629 | 113.80341 | 22 ft | 0 kts | 153° |
| 2026-04-14 05:29 | 22.63642 | 113.80334 | 22 ft | 2 kts | 153° |
| 2026-04-14 05:29 | 22.63656 | 113.80327 | 21 ft | 2 kts | 153° |
| 2026-04-14 05:30 | 22.63669 | 113.80320 | 21 ft | 2 kts | 153° |
| 2026-04-14 05:30 | 22.63683 | 113.80312 | 22 ft | 2 kts | 153° |
| 2026-04-14 05:30 | 22.63697 | 113.80305 | 21 ft | 2 kts | 153° |
| 2026-04-14 05:30 | 22.63711 | 113.80299 | 21 ft | 2 kts | 178° |
| 2026-04-14 05:31 | 22.63725 | 113.80301 | 21 ft | 2 kts | 199° |
| 2026-04-14 05:31 | 22.63738 | 113.80308 | 22 ft | 2 kts | 221° |
| 2026-04-14 05:31 | 22.63746 | 113.80318 | 21 ft | 0 kts | 240° |
| 2026-04-14 05:31 | 22.63750 | 113.80326 | 21 ft | 0 kts | 243° |
| 2026-04-14 05:36 | 22.63748 | 113.80322 | 21 ft | 0 kts | 243° |
| 2026-04-14 05:36 | 22.63745 | 113.80315 | 21 ft | 1 kts | 243° |
| 2026-04-14 05:36 | 22.63739 | 113.80304 | 21 ft | 2 kts | 242° |
| 2026-04-14 05:36 | 22.63731 | 113.80287 | 21 ft | 3 kts | 242° |
| 2026-04-14 05:37 | 22.63719 | 113.80262 | 21 ft | 4 kts | 243° |
| 2026-04-14 05:37 | 22.63703 | 113.80228 | 21 ft | 5 kts | 242° |
| 2026-04-14 05:37 | 22.63681 | 113.80183 | 21 ft | 7 kts | 243° |
| 2026-04-14 05:37 | 22.63656 | 113.80128 | 21 ft | 8 kts | 243° |
| 2026-04-14 05:38 | 22.63628 | 113.80070 | 21 ft | 8 kts | 243° |
| 2026-04-14 05:38 | 22.63597 | 113.80005 | 21 ft | 10 kts | 243° |
| 2026-04-14 05:38 | 22.63562 | 113.79931 | 21 ft | 11 kts | 243° |
| 2026-04-14 05:38 | 22.63560 | 113.79848 | 21 ft | 12 kts | 321° |
| 2026-04-14 05:39 | 22.63640 | 113.79802 | 21 ft | 13 kts | 332° |
| 2026-04-14 05:39 | 22.63727 | 113.79753 | 21 ft | 14 kts | 333° |
| 2026-04-14 05:39 | 22.63819 | 113.79703 | 21 ft | 15 kts | 333° |
| 2026-04-14 05:39 | 22.63918 | 113.79649 | 21 ft | 16 kts | 333° |
| 2026-04-14 05:40 | 22.64021 | 113.79592 | 21 ft | 16 kts | 333° |
| 2026-04-14 05:40 | 22.64127 | 113.79534 | 21 ft | 17 kts | 333° |
| 2026-04-14 05:40 | 22.64237 | 113.79474 | 21 ft | 18 kts | 333° |
| 2026-04-14 05:40 | 22.64350 | 113.79411 | 21 ft | 18 kts | 334° |
| 2026-04-14 05:41 | 22.64463 | 113.79350 | 21 ft | 18 kts | 333° |
| 2026-04-14 05:41 | 22.64576 | 113.79288 | 21 ft | 18 kts | 333° |
| 2026-04-14 05:41 | 22.64692 | 113.79223 | 21 ft | 18 kts | 332° |
| 2026-04-14 05:41 | 22.64809 | 113.79160 | 21 ft | 19 kts | 333° |
| 2026-04-14 05:42 | 22.64929 | 113.79092 | 21 ft | 19 kts | 335° |
| 2026-04-14 05:42 | 22.65051 | 113.79027 | 21 ft | 19 kts | 333° |
| 2026-04-14 05:42 | 22.65171 | 113.78961 | 21 ft | 19 kts | 333° |
| 2026-04-14 05:42 | 22.65288 | 113.78897 | 21 ft | 18 kts | 333° |
| 2026-04-14 05:43 | 22.65362 | 113.78847 | 21 ft | 10 kts | 300° |
| 2026-04-14 05:43 | 22.65346 | 113.78774 | 21 ft | 10 kts | 243° |
| 2026-04-14 05:43 | 22.65313 | 113.78704 | 21 ft | 8 kts | 243° |
| 2026-04-14 05:43 | 22.65312 | 113.78702 | 21 ft | 0 kts | 243° |
| 2026-04-14 05:44 | 22.65310 | 113.78698 | 21 ft | 1 kts | 243° |
| 2026-04-14 05:45 | 22.65304 | 113.78686 | 21 ft | 3 kts | 243° |
| 2026-04-14 05:45 | 22.65290 | 113.78656 | 21 ft | 5 kts | 243° |
| 2026-04-14 05:45 | 22.65260 | 113.78612 | 21 ft | 8 kts | 206° |
| 2026-04-14 05:45 | 22.65193 | 113.78622 | 21 ft | 10 kts | 152° |
| 2026-04-14 05:46 | 22.65166 | 113.78638 | 21 ft | 20 kts | 153° |
| 2026-04-14 05:46 | 22.64823 | 113.78825 | 22 ft | 88 kts | 153° |
| 2026-04-14 05:46 | 22.64088 | 113.79230 | 22 ft | 144 kts | 153° |
| 2026-04-14 05:46 | 22.63089 | 113.79796 | 216 ft | 172 kts | 155° |
| 2026-04-14 05:47 | 22.62020 | 113.80389 | 729 ft | 176 kts | 155° |
| 2026-04-14 05:47 | 22.60894 | 113.80830 | 1438 ft | 172 kts | 172° |
| 2026-04-14 05:47 | 22.59705 | 113.80896 | 2027 ft | 174 kts | 180° |
| 2026-04-14 05:47 | 22.58490 | 113.80968 | 2539 ft | 177 kts | 175° |
| 2026-04-14 05:48 | 22.57278 | 113.81078 | 3090 ft | 178 kts | 176° |
| 2026-04-14 05:48 | 22.56001 | 113.81203 | 3435 ft | 192 kts | 175° |
| 2026-04-14 05:48 | 22.54638 | 113.81393 | 3745 ft | 209 kts | 173° |
| 2026-04-14 05:48 | 22.53120 | 113.81630 | 3834 ft | 231 kts | 173° |
| 2026-04-14 05:49 | 22.51720 | 113.81784 | 3824 ft | 236 kts | 183° |
| 2026-04-14 05:49 | 22.50683 | 113.81599 | 3843 ft | 237 kts | 200° |
| 2026-04-14 05:49 | 22.49299 | 113.80650 | 3865 ft | 239 kts | 227° |
| 2026-04-14 05:49 | 22.48494 | 113.79077 | 3875 ft | 243 kts | 255° |
| 2026-04-14 05:50 | 22.48272 | 113.77265 | 3888 ft | 245 kts | 263° |
| 2026-04-14 05:50 | 22.48147 | 113.75429 | 3885 ft | 245 kts | 264° |
| 2026-04-14 05:50 | 22.48050 | 113.73576 | 3881 ft | 246 kts | 271° |
| 2026-04-14 05:50 | 22.48485 | 113.71790 | 3875 ft | 251 kts | 298° |
| 2026-04-14 05:51 | 22.49660 | 113.70387 | 3885 ft | 266 kts | 326° |
| 2026-04-14 05:51 | 22.51425 | 113.69645 | 3903 ft | 279 kts | 346° |
| 2026-04-14 05:51 | 22.53362 | 113.69230 | 4311 ft | 290 kts | 348° |
| 2026-04-14 05:51 | 22.55305 | 113.68843 | 5255 ft | 286 kts | 348° |
| 2026-04-14 05:52 | 22.57251 | 113.68443 | 6076 ft | 288 kts | 349° |
| 2026-04-14 05:52 | 22.59277 | 113.68291 | 6828 ft | 293 kts | 1° |
| 2026-04-14 05:52 | 22.61291 | 113.68524 | 7577 ft | 297 kts | 7° |
| 2026-04-14 05:52 | 22.63334 | 113.68899 | 8299 ft | 300 kts | 8° |
| 2026-04-14 05:53 | 22.65385 | 113.69295 | 8996 ft | 303 kts | 8° |
| 2026-04-14 05:53 | 22.67467 | 113.69693 | 9678 ft | 306 kts | 7° |
| 2026-04-14 05:53 | 22.69541 | 113.70080 | 10366 ft | 308 kts | 7° |
| 2026-04-14 05:53 | 22.71687 | 113.70474 | 10736 ft | 322 kts | 7° |
| 2026-04-14 05:54 | 22.73969 | 113.70889 | 11030 ft | 339 kts | 7° |
| 2026-04-14 05:54 | 22.76335 | 113.71318 | 11312 ft | 354 kts | 7° |
| 2026-04-14 05:54 | 22.78823 | 113.71769 | 11581 ft | 369 kts | 7° |
| 2026-04-14 05:54 | 22.81409 | 113.72240 | 11911 ft | 381 kts | 7° |
| 2026-04-14 05:55 | 22.84011 | 113.72715 | 12490 ft | 385 kts | 7° |
| 2026-04-14 05:55 | 22.86653 | 113.73199 | 13098 ft | 388 kts | 7° |
| 2026-04-14 05:55 | 22.87842 | 113.73416 | 13330 ft | 390 kts | 7° |
| 2026-04-14 05:55 | 22.90571 | 113.73865 | 13841 ft | 394 kts | 4° |
| 2026-04-14 05:56 | 22.93297 | 113.74143 | 14378 ft | 397 kts | 0° |
| 2026-04-14 05:56 | 22.96047 | 113.74238 | 14892 ft | 399 kts | 357° |
| 2026-04-14 05:56 | 22.98826 | 113.74251 | 15395 ft | 403 kts | 357° |
| 2026-04-14 05:56 | 23.01637 | 113.74252 | 15889 ft | 407 kts | 356° |
| 2026-04-14 05:57 | 23.04473 | 113.74253 | 16371 ft | 410 kts | 356° |
| 2026-04-14 05:57 | 23.07321 | 113.74255 | 16836 ft | 414 kts | 356° |
| 2026-04-14 05:57 | 23.10218 | 113.74261 | 17292 ft | 418 kts | 356° |
| 2026-04-14 05:57 | 23.13122 | 113.74268 | 17726 ft | 421 kts | 356° |
| 2026-04-14 05:58 | 23.16011 | 113.74275 | 18147 ft | 425 kts | 356° |
| 2026-04-14 05:58 | 23.18989 | 113.74284 | 18582 ft | 428 kts | 356° |
| 2026-04-14 05:58 | 23.21930 | 113.74293 | 19010 ft | 430 kts | 356° |
| 2026-04-14 05:58 | 23.24926 | 113.74294 | 19427 ft | 432 kts | 354° |
| 2026-04-14 05:59 | 23.27850 | 113.73821 | 19788 ft | 427 kts | 338° |
| 2026-04-14 05:59 | 23.30471 | 113.72429 | 20192 ft | 418 kts | 320° |
| 2026-04-14 05:59 | 23.32538 | 113.70279 | 20618 ft | 411 kts | 304° |
| 2026-04-14 05:59 | 23.34213 | 113.67795 | 21079 ft | 410 kts | 302° |
| 2026-04-14 06:00 | 23.35870 | 113.65238 | 21463 ft | 413 kts | 302° |
| 2026-04-14 06:00 | 23.37512 | 113.62710 | 21846 ft | 415 kts | 302° |
| 2026-04-14 06:00 | 23.39181 | 113.60162 | 22244 ft | 417 kts | 302° |
| 2026-04-14 06:00 | 23.40882 | 113.57580 | 22623 ft | 419 kts | 302° |
| 2026-04-14 06:01 | 23.42581 | 113.55011 | 22988 ft | 421 kts | 302° |
| 2026-04-14 06:01 | 23.44288 | 113.52434 | 23341 ft | 423 kts | 302° |
| 2026-04-14 06:01 | 23.46017 | 113.49824 | 23691 ft | 424 kts | 302° |
| 2026-04-14 06:01 | 23.47746 | 113.47217 | 24044 ft | 426 kts | 302° |
| 2026-04-14 06:02 | 23.49477 | 113.44604 | 24375 ft | 427 kts | 302° |
| 2026-04-14 06:02 | 23.51232 | 113.41979 | 24650 ft | 430 kts | 303° |
| 2026-04-14 06:02 | 23.53094 | 113.39417 | 24928 ft | 434 kts | 306° |
| 2026-04-14 06:02 | 23.55073 | 113.36959 | 25208 ft | 437 kts | 308° |
| 2026-04-14 06:03 | 23.57208 | 113.34553 | 25471 ft | 441 kts | 310° |
| 2026-04-14 06:03 | 23.59362 | 113.32228 | 25747 ft | 443 kts | 310° |
| 2026-04-14 06:03 | 23.61562 | 113.29870 | 26005 ft | 445 kts | 310° |
| 2026-04-14 06:04 | 23.65736 | 113.24937 | 26479 ft | 443 kts | 302° |
| 2026-04-14 06:04 | 23.67465 | 113.22156 | 26716 ft | 442 kts | 297° |
| 2026-04-14 06:04 | 23.68894 | 113.19235 | 26949 ft | 440 kts | 291° |
| 2026-04-14 06:04 | 23.70195 | 113.16167 | 27183 ft | 440 kts | 290° |
| 2026-04-14 06:05 | 23.71437 | 113.13146 | 27456 ft | 440 kts | 290° |
| 2026-04-14 06:05 | 23.72672 | 113.10131 | 27747 ft | 439 kts | 290° |
| 2026-04-14 06:05 | 23.73927 | 113.07077 | 28048 ft | 438 kts | 290° |
| 2026-04-14 06:05 | 23.75174 | 113.04064 | 28328 ft | 438 kts | 291° |
| 2026-04-14 06:06 | 23.76781 | 113.01184 | 28522 ft | 446 kts | 303° |
| 2026-04-14 06:06 | 23.78954 | 112.98768 | 28695 ft | 456 kts | 316° |
| 2026-04-14 06:06 | 23.81632 | 112.96913 | 28896 ft | 466 kts | 329° |
| 2026-04-14 06:06 | 23.84697 | 112.95666 | 29133 ft | 472 kts | 336° |
| 2026-04-14 06:07 | 23.87818 | 112.94636 | 29376 ft | 472 kts | 338° |
| 2026-04-14 06:07 | 23.90943 | 112.93641 | 29586 ft | 472 kts | 338° |
| 2026-04-14 06:07 | 23.94084 | 112.92631 | 29794 ft | 472 kts | 337° |
| 2026-04-14 06:07 | 23.97231 | 112.91597 | 29989 ft | 472 kts | 337° |
| 2026-04-14 06:08 | 24.00378 | 112.90552 | 30191 ft | 472 kts | 337° |
| 2026-04-14 06:08 | 24.03492 | 112.89521 | 30428 ft | 471 kts | 336° |
| 2026-04-14 06:08 | 24.06621 | 112.88477 | 30678 ft | 469 kts | 336° |
| 2026-04-14 06:08 | 24.09712 | 112.87440 | 30909 ft | 468 kts | 336° |
| 2026-04-14 06:09 | 24.12809 | 112.86404 | 31122 ft | 467 kts | 336° |
| 2026-04-14 06:09 | 24.15941 | 112.85358 | 31310 ft | 467 kts | 336° |
| 2026-04-14 06:09 | 24.19019 | 112.84335 | 31485 ft | 467 kts | 336° |
| 2026-04-14 06:09 | 24.22138 | 112.83301 | 31654 ft | 467 kts | 336° |
| 2026-04-14 06:10 | 24.25197 | 112.82284 | 31819 ft | 466 kts | 336° |
| 2026-04-14 06:10 | 24.28318 | 112.81245 | 31985 ft | 466 kts | 336° |
| 2026-04-14 06:10 | 24.31382 | 112.80225 | 32156 ft | 466 kts | 336° |
| 2026-04-14 06:10 | 24.34502 | 112.79185 | 32313 ft | 465 kts | 336° |
| 2026-04-14 06:11 | 24.37577 | 112.78153 | 32440 ft | 465 kts | 334° |
| 2026-04-14 06:11 | 24.40529 | 112.76799 | 32541 ft | 455 kts | 324° |
| 2026-04-14 06:11 | 24.43025 | 112.75071 | 32667 ft | 446 kts | 316° |
| 2026-04-14 06:11 | 24.45311 | 112.72835 | 32824 ft | 436 kts | 307° |
| 2026-04-14 06:12 | 24.47192 | 112.70272 | 32997 ft | 427 kts | 298° |
| 2026-04-14 06:12 | 24.48635 | 112.67494 | 33133 ft | 420 kts | 290° |
| 2026-04-14 06:12 | 24.49666 | 112.64497 | 33242 ft | 415 kts | 282° |
| 2026-04-14 06:12 | 24.50251 | 112.61421 | 33363 ft | 411 kts | 275° |
| 2026-04-14 06:13 | 24.50590 | 112.58308 | 33524 ft | 409 kts | 273° |
| 2026-04-14 06:13 | 24.50893 | 112.55209 | 33642 ft | 409 kts | 273° |
| 2026-04-14 06:13 | 24.51187 | 112.52143 | 33749 ft | 409 kts | 273° |
| 2026-04-14 06:13 | 24.51486 | 112.49021 | 33868 ft | 409 kts | 273° |
| 2026-04-14 06:14 | 24.51785 | 112.45911 | 33993 ft | 409 kts | 273° |
| 2026-04-14 06:14 | 24.52080 | 112.42842 | 34124 ft | 408 kts | 273° |
| 2026-04-14 06:14 | 24.52377 | 112.39751 | 34241 ft | 408 kts | 273° |
| 2026-04-14 06:15 | 24.52971 | 112.33553 | 34449 ft | 408 kts | 273° |
| 2026-04-14 06:15 | 24.53267 | 112.30466 | 34599 ft | 408 kts | 273° |
| 2026-04-14 06:15 | 24.53564 | 112.27364 | 34722 ft | 408 kts | 273° |
| 2026-04-14 06:16 | 24.54154 | 112.21178 | 34874 ft | 409 kts | 273° |
| 2026-04-14 06:16 | 24.54447 | 112.18094 | 34980 ft | 408 kts | 273° |
| 2026-04-14 06:16 | 24.54742 | 112.14984 | 35063 ft | 408 kts | 273° |
| 2026-04-14 06:17 | 24.55329 | 112.08773 | 35269 ft | 408 kts | 273° |
| 2026-04-14 06:17 | 24.55617 | 112.05721 | 35390 ft | 407 kts | 273° |
| 2026-04-14 06:17 | 24.55910 | 112.02606 | 35509 ft | 406 kts | 273° |
| 2026-04-14 06:18 | 24.56475 | 111.96574 | 35661 ft | 406 kts | 272° |
| 2026-04-14 06:18 | 24.57051 | 111.90390 | 35700 ft | 408 kts | 272° |
| 2026-04-14 06:19 | 24.57626 | 111.84197 | 35834 ft | 407 kts | 272° |
| 2026-04-14 06:19 | 24.58193 | 111.78064 | 35978 ft | 406 kts | 272° |
| 2026-04-14 06:20 | 24.58760 | 111.71903 | 36046 ft | 406 kts | 272° |
| 2026-04-14 06:20 | 24.59324 | 111.65729 | 36067 ft | 407 kts | 272° |
| 2026-04-14 06:21 | 24.59886 | 111.59576 | 36189 ft | 406 kts | 272° |
| 2026-04-14 06:21 | 24.60429 | 111.53574 | 36212 ft | 406 kts | 272° |
| 2026-04-14 06:22 | 24.60984 | 111.47435 | 36478 ft | 401 kts | 272° |
| 2026-04-14 06:22 | 24.61258 | 111.44407 | 36727 ft | 397 kts | 272° |
| 2026-04-14 06:22 | 24.61530 | 111.41386 | 36976 ft | 392 kts | 272° |
| 2026-04-14 06:22 | 24.61796 | 111.38425 | 37092 ft | 392 kts | 272° |
| 2026-04-14 06:23 | 24.62059 | 111.35457 | 37069 ft | 394 kts | 272° |
| 2026-04-14 06:23 | 24.62593 | 111.29434 | 36818 ft | 398 kts | 272° |
| 2026-04-14 06:23 | 24.62854 | 111.26434 | 36269 ft | 404 kts | 272° |
| 2026-04-14 06:24 | 24.63122 | 111.23341 | 36023 ft | 410 kts | 272° |
| 2026-04-14 06:24 | 24.63662 | 111.17092 | 36015 ft | 412 kts | 272° |
| 2026-04-14 06:25 | 24.64204 | 111.10810 | 36013 ft | 414 kts | 272° |
| 2026-04-14 06:25 | 24.64744 | 111.04500 | 36014 ft | 417 kts | 272° |
| 2026-04-14 06:26 | 24.65284 | 110.98160 | 36014 ft | 416 kts | 272° |
| 2026-04-14 06:26 | 24.65818 | 110.91846 | 36015 ft | 416 kts | 272° |
| 2026-04-14 06:27 | 24.66603 | 110.85561 | 36014 ft | 419 kts | 279° |
| 2026-04-14 06:27 | 24.68459 | 110.79473 | 36015 ft | 426 kts | 289° |
| 2026-04-14 06:28 | 24.71429 | 110.73805 | 36015 ft | 435 kts | 300° |
| 2026-04-14 06:28 | 24.75465 | 110.68778 | 36018 ft | 443 kts | 309° |
| 2026-04-14 06:29 | 24.79912 | 110.64085 | 36017 ft | 443 kts | 309° |
| 2026-04-14 06:29 | 24.84365 | 110.59413 | 36018 ft | 443 kts | 309° |
| 2026-04-14 06:30 | 24.88792 | 110.54754 | 36018 ft | 443 kts | 309° |
| 2026-04-14 06:30 | 24.93237 | 110.50063 | 36019 ft | 442 kts | 309° |
| 2026-04-14 06:31 | 24.97646 | 110.45401 | 36020 ft | 442 kts | 309° |
| 2026-04-14 06:31 | 25.02064 | 110.40729 | 36020 ft | 441 kts | 309° |
| 2026-04-14 06:32 | 25.06484 | 110.36066 | 36020 ft | 440 kts | 309° |
| 2026-04-14 06:32 | 25.10901 | 110.31401 | 36022 ft | 439 kts | 308° |
| 2026-04-14 06:33 | 25.15292 | 110.26753 | 36022 ft | 438 kts | 308° |
| 2026-04-14 06:33 | 25.19667 | 110.22117 | 36022 ft | 439 kts | 308° |
| 2026-04-14 06:34 | 25.26304 | 110.15159 | 36022 ft | 439 kts | 309° |
| 2026-04-14 06:34 | 25.30707 | 110.10554 | 36022 ft | 438 kts | 308° |
| 2026-04-14 06:35 | 25.35124 | 110.05925 | 36022 ft | 437 kts | 308° |
| 2026-04-14 06:35 | 25.39502 | 110.01329 | 36022 ft | 437 kts | 308° |
| 2026-04-14 06:36 | 25.43882 | 109.96725 | 36021 ft | 437 kts | 308° |
| 2026-04-14 06:36 | 25.48206 | 109.92174 | 36021 ft | 437 kts | 308° |
| 2026-04-14 06:37 | 25.52577 | 109.87569 | 36022 ft | 437 kts | 308° |
| 2026-04-14 06:37 | 25.56988 | 109.82918 | 36023 ft | 437 kts | 308° |
| 2026-04-14 06:38 | 25.61265 | 109.78401 | 36024 ft | 436 kts | 308° |
| 2026-04-14 06:38 | 25.65662 | 109.73752 | 36023 ft | 436 kts | 308° |
| 2026-04-14 06:39 | 25.70028 | 109.69131 | 36024 ft | 435 kts | 307° |
| 2026-04-14 06:39 | 25.74022 | 109.64170 | 36025 ft | 426 kts | 300° |
| 2026-04-14 06:40 | 25.77219 | 109.58764 | 36025 ft | 418 kts | 292° |
| 2026-04-14 06:40 | 25.79642 | 109.52979 | 36026 ft | 412 kts | 284° |
| 2026-04-14 06:41 | 25.81372 | 109.46976 | 36027 ft | 409 kts | 281° |
| 2026-04-14 06:41 | 25.82981 | 109.40903 | 36028 ft | 409 kts | 281° |
| 2026-04-14 06:42 | 25.84568 | 109.34868 | 36027 ft | 409 kts | 281° |
| 2026-04-14 06:42 | 25.86162 | 109.28796 | 36031 ft | 409 kts | 281° |
| 2026-04-14 06:43 | 25.87747 | 109.22750 | 36032 ft | 409 kts | 281° |
| 2026-04-14 06:43 | 25.89335 | 109.16674 | 36033 ft | 410 kts | 281° |
| 2026-04-14 06:44 | 25.90915 | 109.10612 | 36035 ft | 409 kts | 281° |
| 2026-04-14 06:44 | 25.92493 | 109.04552 | 36036 ft | 409 kts | 281° |
| 2026-04-14 06:45 | 25.94102 | 108.98498 | 36038 ft | 408 kts | 281° |
| 2026-04-14 06:45 | 25.95707 | 108.92478 | 36039 ft | 408 kts | 281° |
| 2026-04-14 06:46 | 25.98106 | 108.83435 | 36042 ft | 408 kts | 281° |
| 2026-04-14 06:47 | 25.99701 | 108.77404 | 36045 ft | 407 kts | 281° |
| 2026-04-14 06:47 | 26.01290 | 108.71403 | 36048 ft | 403 kts | 281° |
| 2026-04-14 06:48 | 26.02882 | 108.65426 | 36050 ft | 403 kts | 281° |
| 2026-04-14 06:48 | 26.04467 | 108.59459 | 36052 ft | 403 kts | 281° |
| 2026-04-14 06:49 | 26.06043 | 108.53507 | 36055 ft | 402 kts | 281° |
| 2026-04-14 06:49 | 26.07623 | 108.47532 | 36057 ft | 402 kts | 281° |
| 2026-04-14 06:50 | 26.09287 | 108.41619 | 36060 ft | 404 kts | 284° |
| 2026-04-14 06:50 | 26.11426 | 108.35802 | 36064 ft | 408 kts | 288° |
| 2026-04-14 06:51 | 26.13852 | 108.30151 | 36069 ft | 408 kts | 289° |
| 2026-04-14 06:51 | 26.16310 | 108.24459 | 36076 ft | 409 kts | 289° |
| 2026-04-14 06:52 | 26.18766 | 108.18772 | 36082 ft | 409 kts | 289° |
| 2026-04-14 06:52 | 26.21237 | 108.13045 | 36087 ft | 409 kts | 289° |
| 2026-04-14 06:53 | 26.22957 | 108.09057 | 36089 ft | 409 kts | 289° |
| 2026-04-14 06:53 | 26.25420 | 108.03336 | 36093 ft | 409 kts | 289° |
| 2026-04-14 06:54 | 26.27867 | 107.97644 | 36096 ft | 409 kts | 289° |
| 2026-04-14 06:54 | 26.30332 | 107.91905 | 36100 ft | 410 kts | 289° |
| 2026-04-14 06:55 | 26.32771 | 107.86218 | 36103 ft | 409 kts | 289° |
| 2026-04-14 06:55 | 26.35228 | 107.80479 | 36106 ft | 409 kts | 289° |
| 2026-04-14 06:56 | 26.37676 | 107.74754 | 36109 ft | 409 kts | 289° |
| 2026-04-14 06:56 | 26.40097 | 107.69087 | 36114 ft | 409 kts | 289° |
| 2026-04-14 06:57 | 26.42532 | 107.63376 | 36117 ft | 409 kts | 289° |
| 2026-04-14 06:57 | 26.44967 | 107.57652 | 36121 ft | 410 kts | 289° |
| 2026-04-14 06:58 | 26.47409 | 107.51910 | 36124 ft | 410 kts | 289° |
| 2026-04-14 06:58 | 26.49851 | 107.46154 | 36125 ft | 410 kts | 289° |
| 2026-04-14 06:59 | 26.52292 | 107.40389 | 36127 ft | 410 kts | 288° |
| 2026-04-14 06:59 | 26.54716 | 107.34653 | 36129 ft | 409 kts | 288° |
| 2026-04-14 07:00 | 26.57140 | 107.28929 | 36129 ft | 410 kts | 288° |
| 2026-04-14 07:00 | 26.59514 | 107.23319 | 36129 ft | 410 kts | 288° |
| 2026-04-14 07:01 | 26.61939 | 107.17577 | 36128 ft | 410 kts | 288° |
| 2026-04-14 07:01 | 26.64365 | 107.11839 | 36128 ft | 410 kts | 288° |
| 2026-04-14 07:02 | 26.66812 | 107.06093 | 36129 ft | 410 kts | 288° |
| 2026-04-14 07:02 | 26.69232 | 107.00398 | 36130 ft | 410 kts | 288° |
| 2026-04-14 07:03 | 26.71664 | 106.94656 | 36129 ft | 410 kts | 288° |
| 2026-04-14 07:03 | 26.74109 | 106.88875 | 36129 ft | 410 kts | 289° |
| 2026-04-14 07:04 | 26.76861 | 106.83244 | 36129 ft | 416 kts | 294° |
| 2026-04-14 07:04 | 26.80179 | 106.77939 | 36130 ft | 423 kts | 300° |
| 2026-04-14 07:05 | 26.84106 | 106.72962 | 36130 ft | 431 kts | 306° |
| 2026-04-14 07:05 | 26.88522 | 106.68419 | 36130 ft | 435 kts | 309° |
| 2026-04-14 07:06 | 26.93073 | 106.63956 | 36131 ft | 435 kts | 310° |
| 2026-04-14 07:06 | 26.97610 | 106.59512 | 36131 ft | 435 kts | 310° |
| 2026-04-14 07:07 | 27.02170 | 106.55036 | 36131 ft | 435 kts | 310° |
| 2026-04-14 07:07 | 27.06613 | 106.50671 | 36131 ft | 436 kts | 310° |
| 2026-04-14 07:08 | 27.11157 | 106.46201 | 36130 ft | 435 kts | 310° |
| 2026-04-14 07:08 | 27.15599 | 106.41827 | 36131 ft | 435 kts | 310° |
| 2026-04-14 07:09 | 27.20159 | 106.37332 | 36130 ft | 436 kts | 310° |
| 2026-04-14 07:09 | 27.24696 | 106.32916 | 36132 ft | 437 kts | 310° |
| 2026-04-14 07:10 | 27.28587 | 106.29138 | 36130 ft | 436 kts | 310° |
| 2026-04-14 07:10 | 27.33170 | 106.24680 | 36129 ft | 436 kts | 310° |
| 2026-04-14 07:11 | 27.37742 | 106.20221 | 36128 ft | 436 kts | 310° |
| 2026-04-14 07:11 | 27.42303 | 106.15765 | 36127 ft | 436 kts | 310° |
| 2026-04-14 07:12 | 27.46854 | 106.11317 | 36126 ft | 436 kts | 310° |
| 2026-04-14 07:12 | 27.51421 | 106.06845 | 36126 ft | 436 kts | 310° |
| 2026-04-14 07:13 | 27.55971 | 106.02387 | 36124 ft | 435 kts | 310° |
| 2026-04-14 07:13 | 27.60556 | 105.97884 | 36123 ft | 436 kts | 310° |
| 2026-04-14 07:14 | 27.65089 | 105.93430 | 36121 ft | 435 kts | 309° |
| 2026-04-14 07:14 | 27.69267 | 105.88602 | 36120 ft | 425 kts | 302° |
| 2026-04-14 07:15 | 27.72650 | 105.83232 | 36119 ft | 417 kts | 294° |
| 2026-04-14 07:15 | 27.75217 | 105.77479 | 36117 ft | 410 kts | 286° |
| 2026-04-14 07:16 | 27.77069 | 105.71457 | 36118 ft | 406 kts | 282° |
| 2026-04-14 07:16 | 27.78775 | 105.65392 | 36117 ft | 406 kts | 282° |
| 2026-04-14 07:17 | 27.80693 | 105.59425 | 36115 ft | 410 kts | 287° |
| 2026-04-14 07:17 | 27.82949 | 105.53534 | 36115 ft | 411 kts | 288° |
| 2026-04-14 07:18 | 27.85224 | 105.47637 | 36115 ft | 411 kts | 288° |
| 2026-04-14 07:18 | 27.87513 | 105.41705 | 36115 ft | 410 kts | 288° |
| 2026-04-14 07:19 | 27.89955 | 105.35878 | 36114 ft | 412 kts | 290° |
| 2026-04-14 07:19 | 27.92518 | 105.30119 | 36115 ft | 411 kts | 290° |
| 2026-04-14 07:20 | 27.95258 | 105.24436 | 36114 ft | 416 kts | 295° |
| 2026-04-14 07:20 | 27.98720 | 105.19183 | 36112 ft | 423 kts | 303° |
| 2026-04-14 07:21 | 28.02615 | 105.14784 | 36112 ft | 432 kts | 311° |
| 2026-04-14 07:21 | 28.07512 | 105.10709 | 36110 ft | 441 kts | 319° |
| 2026-04-14 07:22 | 28.12699 | 105.07059 | 36100 ft | 441 kts | 320° |
| 2026-04-14 07:22 | 28.17880 | 105.03449 | 36091 ft | 441 kts | 319° |
| 2026-04-14 07:23 | 28.23101 | 104.99800 | 36085 ft | 442 kts | 319° |
| 2026-04-14 07:23 | 28.27896 | 104.96442 | 36082 ft | 440 kts | 320° |
| 2026-04-14 07:24 | 28.33079 | 104.92806 | 36080 ft | 440 kts | 319° |
| 2026-04-14 07:24 | 28.38270 | 104.89162 | 36078 ft | 439 kts | 319° |
| 2026-04-14 07:25 | 28.43460 | 104.85535 | 36077 ft | 438 kts | 320° |
| 2026-04-14 07:25 | 28.48646 | 104.81914 | 36075 ft | 438 kts | 320° |
| 2026-04-14 07:26 | 28.53815 | 104.78298 | 36074 ft | 438 kts | 320° |
| 2026-04-14 07:26 | 28.58995 | 104.74669 | 36073 ft | 438 kts | 320° |
| 2026-04-14 07:27 | 28.64158 | 104.71046 | 36072 ft | 438 kts | 320° |
| 2026-04-14 07:27 | 28.69306 | 104.67429 | 36072 ft | 437 kts | 320° |
| 2026-04-14 07:28 | 28.74416 | 104.63833 | 36070 ft | 437 kts | 320° |
| 2026-04-14 07:28 | 28.79580 | 104.60194 | 36069 ft | 437 kts | 320° |
| 2026-04-14 07:29 | 28.85072 | 104.57286 | 36067 ft | 456 kts | 335° |
| 2026-04-14 07:29 | 28.88167 | 104.56524 | 36068 ft | 467 kts | 343° |
| 2026-04-14 07:29 | 28.91413 | 104.56224 | 36071 ft | 474 kts | 348° |
| 2026-04-14 07:30 | 28.98013 | 104.55971 | 36067 ft | 475 kts | 349° |
| 2026-04-14 07:30 | 29.04600 | 104.55739 | 36065 ft | 474 kts | 349° |
| 2026-04-14 07:31 | 29.10089 | 104.55521 | 36064 ft | 474 kts | 349° |
| 2026-04-14 07:32 | 29.13966 | 104.55362 | 36064 ft | 474 kts | 349° |
| 2026-04-14 07:32 | 29.20591 | 104.55085 | 36063 ft | 473 kts | 349° |
| 2026-04-14 07:33 | 29.27108 | 104.54806 | 36062 ft | 473 kts | 349° |
| 2026-04-14 07:33 | 29.33162 | 104.54549 | 36062 ft | 472 kts | 349° |
| 2026-04-14 07:34 | 29.45819 | 104.54006 | 36059 ft | 471 kts | 349° |
| 2026-04-14 07:35 | 29.52347 | 104.53725 | 36058 ft | 471 kts | 349° |
| 2026-04-14 07:35 | 29.58885 | 104.53444 | 36056 ft | 472 kts | 349° |
| 2026-04-14 07:36 | 29.65412 | 104.53164 | 36055 ft | 470 kts | 349° |
| 2026-04-14 07:36 | 29.71548 | 104.52898 | 36054 ft | 470 kts | 349° |
| 2026-04-14 07:37 | 29.78096 | 104.52615 | 36054 ft | 470 kts | 350° |
| 2026-04-14 07:37 | 29.84593 | 104.52335 | 36053 ft | 470 kts | 350° |
| 2026-04-14 07:38 | 29.91114 | 104.52052 | 36052 ft | 470 kts | 350° |
| 2026-04-14 07:38 | 29.97633 | 104.51769 | 36052 ft | 470 kts | 350° |
| 2026-04-14 07:39 | 30.04145 | 104.51485 | 36052 ft | 469 kts | 350° |
| 2026-04-14 07:39 | 30.10646 | 104.51203 | 36052 ft | 469 kts | 350° |
| 2026-04-14 07:40 | 30.17119 | 104.50922 | 36051 ft | 470 kts | 350° |
| 2026-04-14 07:40 | 30.23676 | 104.50634 | 36051 ft | 471 kts | 350° |
| 2026-04-14 07:41 | 30.30154 | 104.50351 | 36052 ft | 471 kts | 350° |
| 2026-04-14 07:41 | 30.36647 | 104.50066 | 36051 ft | 471 kts | 350° |
| 2026-04-14 07:42 | 30.43161 | 104.49778 | 36050 ft | 472 kts | 350° |
| 2026-04-14 07:42 | 30.49742 | 104.49486 | 36049 ft | 473 kts | 350° |
| 2026-04-14 07:43 | 30.56285 | 104.49065 | 36047 ft | 469 kts | 347° |
| 2026-04-14 07:43 | 30.62665 | 104.47975 | 36044 ft | 463 kts | 341° |
| 2026-04-14 07:44 | 30.68852 | 104.46095 | 36044 ft | 456 kts | 335° |
| 2026-04-14 07:44 | 30.74816 | 104.43803 | 36041 ft | 454 kts | 334° |
| 2026-04-14 07:45 | 30.80855 | 104.41517 | 36040 ft | 459 kts | 337° |
| 2026-04-14 07:45 | 30.87092 | 104.39827 | 36037 ft | 467 kts | 343° |
| 2026-04-14 07:46 | 30.93568 | 104.38911 | 36034 ft | 473 kts | 349° |
| 2026-04-14 07:46 | 31.00155 | 104.38657 | 36033 ft | 476 kts | 352° |
| 2026-04-14 07:47 | 31.06515 | 104.38515 | 36033 ft | 476 kts | 352° |
| 2026-04-14 07:47 | 31.12423 | 104.38370 | 36032 ft | 475 kts | 352° |
| 2026-04-14 07:48 | 31.18974 | 104.38200 | 36033 ft | 473 kts | 352° |
| 2026-04-14 07:48 | 31.25514 | 104.38023 | 36032 ft | 472 kts | 352° |
| 2026-04-14 07:49 | 31.32039 | 104.37675 | 36033 ft | 470 kts | 350° |
| 2026-04-14 07:49 | 31.38565 | 104.37271 | 36033 ft | 470 kts | 351° |
| 2026-04-14 07:50 | 31.45044 | 104.36883 | 36033 ft | 470 kts | 351° |
| 2026-04-14 07:50 | 31.51584 | 104.36498 | 36034 ft | 470 kts | 351° |
| 2026-04-14 07:51 | 31.58091 | 104.36119 | 36034 ft | 470 kts | 351° |
| 2026-04-14 07:51 | 31.64578 | 104.35738 | 36034 ft | 470 kts | 351° |
| 2026-04-14 07:52 | 31.71068 | 104.35355 | 36035 ft | 471 kts | 351° |
| 2026-04-14 07:52 | 31.77606 | 104.34972 | 36038 ft | 471 kts | 351° |
| 2026-04-14 07:53 | 31.84109 | 104.34641 | 36038 ft | 471 kts | 351° |
| 2026-04-14 07:53 | 31.90647 | 104.34315 | 36038 ft | 470 kts | 351° |
| 2026-04-14 07:54 | 31.97158 | 104.33985 | 36038 ft | 470 kts | 351° |
| 2026-04-14 07:54 | 32.03546 | 104.33657 | 36039 ft | 471 kts | 351° |
| 2026-04-14 07:55 | 32.10059 | 104.33321 | 36040 ft | 472 kts | 351° |
| 2026-04-14 07:55 | 32.16629 | 104.32981 | 36041 ft | 472 kts | 351° |
| 2026-04-14 07:56 | 32.23175 | 104.32642 | 36042 ft | 473 kts | 351° |
| 2026-04-14 07:56 | 32.29729 | 104.32300 | 36042 ft | 473 kts | 351° |
| 2026-04-14 07:57 | 32.36249 | 104.31960 | 36043 ft | 472 kts | 351° |
| 2026-04-14 07:57 | 32.42797 | 104.31623 | 36045 ft | 472 kts | 351° |
| 2026-04-14 07:58 | 32.49334 | 104.31310 | 36046 ft | 473 kts | 351° |
| 2026-04-14 07:58 | 32.55910 | 104.30990 | 36045 ft | 473 kts | 351° |
| 2026-04-14 07:59 | 32.62498 | 104.30672 | 36048 ft | 476 kts | 351° |
| 2026-04-14 07:59 | 32.68925 | 104.30366 | 36048 ft | 477 kts | 351° |
| 2026-04-14 08:00 | 32.75498 | 104.30049 | 36051 ft | 475 kts | 351° |
| 2026-04-14 08:00 | 32.82124 | 104.29726 | 36052 ft | 476 kts | 351° |
| 2026-04-14 08:01 | 32.88677 | 104.29411 | 36053 ft | 476 kts | 351° |
| 2026-04-14 08:01 | 32.95294 | 104.29095 | 36054 ft | 476 kts | 351° |
| 2026-04-14 08:02 | 33.01867 | 104.28777 | 36054 ft | 476 kts | 351° |
| 2026-04-14 08:02 | 33.08272 | 104.28464 | 36058 ft | 475 kts | 351° |
| 2026-04-14 08:03 | 33.14664 | 104.28150 | 36058 ft | 475 kts | 351° |
| 2026-04-14 08:03 | 33.21243 | 104.27825 | 36060 ft | 474 kts | 351° |
| 2026-04-14 08:04 | 33.26831 | 104.27515 | 36059 ft | 473 kts | 349° |
| 2026-04-14 08:04 | 33.33207 | 104.26381 | 36062 ft | 466 kts | 340° |
| 2026-04-14 08:05 | 33.39319 | 104.24130 | 36064 ft | 458 kts | 332° |
| 2026-04-14 08:05 | 33.45021 | 104.20853 | 36066 ft | 453 kts | 324° |
| 2026-04-14 08:06 | 33.50478 | 104.17110 | 36067 ft | 453 kts | 325° |
| 2026-04-14 08:06 | 33.56128 | 104.14030 | 36070 ft | 461 kts | 334° |
| 2026-04-14 08:07 | 33.62327 | 104.12000 | 36071 ft | 469 kts | 343° |
| 2026-04-14 08:07 | 33.68840 | 104.11189 | 35732 ft | 477 kts | 352° |
| 2026-04-14 08:07 | 33.72153 | 104.11150 | 35481 ft | 475 kts | 354° |
| 2026-04-14 08:08 | 33.75411 | 104.11161 | 35232 ft | 473 kts | 354° |
| 2026-04-14 08:08 | 33.78670 | 104.11181 | 34982 ft | 470 kts | 354° |
| 2026-04-14 08:08 | 33.81931 | 104.11206 | 34732 ft | 470 kts | 355° |
| 2026-04-14 08:08 | 33.85202 | 104.11247 | 34483 ft | 470 kts | 354° |
| 2026-04-14 08:09 | 33.88393 | 104.11260 | 34239 ft | 470 kts | 354° |
| 2026-04-14 08:09 | 33.91700 | 104.11268 | 33982 ft | 470 kts | 354° |
| 2026-04-14 08:09 | 33.94945 | 104.11269 | 33734 ft | 472 kts | 354° |
| 2026-04-14 08:09 | 33.98226 | 104.11270 | 33485 ft | 473 kts | 354° |
| 2026-04-14 08:10 | 34.01524 | 104.11270 | 33232 ft | 475 kts | 354° |
| 2026-04-14 08:10 | 34.04827 | 104.11270 | 32983 ft | 476 kts | 354° |
| 2026-04-14 08:10 | 34.08114 | 104.11271 | 32734 ft | 476 kts | 354° |
| 2026-04-14 08:10 | 34.11376 | 104.11272 | 32486 ft | 476 kts | 354° |
| 2026-04-14 08:11 | 34.14711 | 104.11273 | 32233 ft | 477 kts | 354° |
| 2026-04-14 08:11 | 34.18033 | 104.11274 | 31984 ft | 477 kts | 354° |
| 2026-04-14 08:11 | 34.21321 | 104.11275 | 31736 ft | 477 kts | 354° |
| 2026-04-14 08:11 | 34.24612 | 104.11276 | 31488 ft | 478 kts | 354° |
| 2026-04-14 08:12 | 34.27952 | 104.11277 | 31236 ft | 478 kts | 354° |
| 2026-04-14 08:12 | 34.31260 | 104.11279 | 30987 ft | 478 kts | 354° |
| 2026-04-14 08:12 | 34.34544 | 104.11279 | 30742 ft | 478 kts | 354° |
| 2026-04-14 08:12 | 34.37844 | 104.11280 | 30492 ft | 478 kts | 354° |
| 2026-04-14 08:13 | 34.41161 | 104.11281 | 30242 ft | 478 kts | 354° |
| 2026-04-14 08:13 | 34.44502 | 104.11281 | 29991 ft | 478 kts | 354° |
| 2026-04-14 08:13 | 34.47821 | 104.11280 | 29741 ft | 478 kts | 354° |
| 2026-04-14 08:13 | 34.51142 | 104.11279 | 29492 ft | 477 kts | 354° |
| 2026-04-14 08:14 | 34.54456 | 104.11279 | 29242 ft | 477 kts | 354° |
| 2026-04-14 08:14 | 34.57765 | 104.11278 | 28993 ft | 477 kts | 354° |
| 2026-04-14 08:14 | 34.61053 | 104.11276 | 28744 ft | 477 kts | 354° |
| 2026-04-14 08:14 | 34.64362 | 104.11275 | 28496 ft | 476 kts | 354° |
| 2026-04-14 08:15 | 34.67665 | 104.11273 | 28245 ft | 476 kts | 354° |
| 2026-04-14 08:15 | 34.70989 | 104.11272 | 27994 ft | 476 kts | 355° |
| 2026-04-14 08:15 | 34.74298 | 104.11271 | 27742 ft | 475 kts | 355° |
| 2026-04-14 08:15 | 34.77584 | 104.11269 | 27494 ft | 475 kts | 355° |
| 2026-04-14 08:16 | 34.80874 | 104.11268 | 27243 ft | 474 kts | 355° |
| 2026-04-14 08:16 | 34.84182 | 104.11267 | 26992 ft | 473 kts | 355° |
| 2026-04-14 08:16 | 34.87450 | 104.11265 | 26740 ft | 473 kts | 355° |
| 2026-04-14 08:16 | 34.90710 | 104.11263 | 26491 ft | 470 kts | 355° |
| 2026-04-14 08:17 | 34.94000 | 104.11262 | 26239 ft | 467 kts | 355° |
| 2026-04-14 08:17 | 34.97201 | 104.11261 | 25992 ft | 465 kts | 355° |
| 2026-04-14 08:17 | 35.00421 | 104.11259 | 25742 ft | 462 kts | 355° |
| 2026-04-14 08:17 | 35.03615 | 104.11258 | 25493 ft | 459 kts | 355° |
| 2026-04-14 08:18 | 35.06816 | 104.11256 | 25241 ft | 456 kts | 355° |
| 2026-04-14 08:18 | 35.09942 | 104.11253 | 24994 ft | 454 kts | 355° |
| 2026-04-14 08:18 | 35.13092 | 104.11250 | 24744 ft | 452 kts | 355° |
| 2026-04-14 08:18 | 35.16222 | 104.11248 | 24494 ft | 450 kts | 355° |
| 2026-04-14 08:19 | 35.19304 | 104.11246 | 24247 ft | 447 kts | 355° |
| 2026-04-14 08:19 | 35.22439 | 104.11243 | 23994 ft | 445 kts | 355° |
| 2026-04-14 08:19 | 35.25491 | 104.11241 | 23746 ft | 443 kts | 355° |
| 2026-04-14 08:19 | 35.26304 | 104.11241 | 23680 ft | 443 kts | 355° |
| 2026-04-14 08:20 | 35.27604 | 104.11240 | 23574 ft | 442 kts | 355° |
| 2026-04-14 08:20 | 35.28977 | 104.11238 | 23461 ft | 441 kts | 355° |
| 2026-04-14 08:20 | 35.29068 | 104.11238 | 23454 ft | 441 kts | 355° |
| 2026-04-14 08:20 | 35.29355 | 104.11238 | 23430 ft | 441 kts | 355° |
| 2026-04-14 08:21 | 35.31931 | 104.11236 | 23220 ft | 439 kts | 355° |
| 2026-04-14 08:21 | 35.34945 | 104.11232 | 22972 ft | 438 kts | 355° |
| 2026-04-14 08:21 | 35.37977 | 104.11228 | 22722 ft | 436 kts | 355° |
| 2026-04-14 08:21 | 35.40992 | 104.11224 | 22472 ft | 434 kts | 355° |
| 2026-04-14 08:22 | 35.44012 | 104.11221 | 22220 ft | 432 kts | 355° |
| 2026-04-14 08:22 | 35.47001 | 104.11092 | 21957 ft | 427 kts | 348° |
| 2026-04-14 08:22 | 35.49802 | 104.10120 | 21702 ft | 416 kts | 332° |
| 2026-04-14 08:22 | 35.52197 | 104.08265 | 21454 ft | 409 kts | 316° |
| 2026-04-14 08:23 | 35.54173 | 104.05829 | 21216 ft | 406 kts | 310° |
| 2026-04-14 08:23 | 35.56065 | 104.03279 | 20965 ft | 404 kts | 310° |
| 2026-04-14 08:23 | 35.57962 | 104.00699 | 20712 ft | 403 kts | 310° |
| 2026-04-14 08:23 | 35.59830 | 103.98168 | 20462 ft | 402 kts | 310° |
| 2026-04-14 08:24 | 35.61719 | 103.95624 | 20211 ft | 401 kts | 310° |
| 2026-04-14 08:24 | 35.63582 | 103.93124 | 19962 ft | 400 kts | 311° |
| 2026-04-14 08:24 | 35.65442 | 103.90630 | 19714 ft | 399 kts | 311° |
| 2026-04-14 08:24 | 35.67332 | 103.88098 | 19460 ft | 399 kts | 311° |
| 2026-04-14 08:25 | 35.69202 | 103.85591 | 19210 ft | 398 kts | 311° |
| 2026-04-14 08:25 | 35.71045 | 103.83120 | 18961 ft | 397 kts | 311° |
| 2026-04-14 08:25 | 35.72911 | 103.80617 | 18710 ft | 396 kts | 311° |
| 2026-04-14 08:25 | 35.74772 | 103.78120 | 18458 ft | 395 kts | 311° |
| 2026-04-14 08:26 | 35.76603 | 103.75661 | 18210 ft | 394 kts | 311° |
| 2026-04-14 08:26 | 35.78442 | 103.73189 | 17960 ft | 392 kts | 311° |
| 2026-04-14 08:26 | 35.80270 | 103.70731 | 17711 ft | 391 kts | 311° |
| 2026-04-14 08:26 | 35.82100 | 103.68269 | 17460 ft | 391 kts | 311° |
| 2026-04-14 08:27 | 35.83941 | 103.65788 | 17208 ft | 390 kts | 311° |
| 2026-04-14 08:27 | 35.85761 | 103.63335 | 16958 ft | 389 kts | 311° |
| 2026-04-14 08:27 | 35.87576 | 103.60886 | 16708 ft | 387 kts | 311° |
| 2026-04-14 08:27 | 35.89392 | 103.58433 | 16457 ft | 386 kts | 311° |
| 2026-04-14 08:28 | 35.91187 | 103.56007 | 16209 ft | 385 kts | 311° |
| 2026-04-14 08:28 | 35.92984 | 103.53577 | 15958 ft | 384 kts | 311° |
| 2026-04-14 08:28 | 35.94770 | 103.51159 | 15707 ft | 383 kts | 311° |
| 2026-04-14 08:28 | 35.96574 | 103.48715 | 15454 ft | 382 kts | 311° |
| 2026-04-14 08:29 | 35.98349 | 103.46308 | 15205 ft | 381 kts | 311° |
| 2026-04-14 08:29 | 36.00126 | 103.43897 | 14954 ft | 380 kts | 311° |
| 2026-04-14 08:29 | 36.01908 | 103.41478 | 14702 ft | 379 kts | 311° |
| 2026-04-14 08:29 | 36.03656 | 103.39102 | 14454 ft | 378 kts | 311° |
| 2026-04-14 08:30 | 36.05442 | 103.36675 | 14200 ft | 376 kts | 311° |
| 2026-04-14 08:30 | 36.07270 | 103.34404 | 13943 ft | 376 kts | 319° |
| 2026-04-14 08:30 | 36.09455 | 103.32613 | 13690 ft | 376 kts | 331° |
| 2026-04-14 08:30 | 36.11882 | 103.31455 | 13440 ft | 378 kts | 343° |
| 2026-04-14 08:31 | 36.14475 | 103.30952 | 13192 ft | 379 kts | 354° |
| 2026-04-14 08:31 | 36.19682 | 103.30630 | 12695 ft | 377 kts | 356° |
| 2026-04-14 08:31 | 36.22302 | 103.30488 | 12444 ft | 376 kts | 355° |
| 2026-04-14 08:32 | 36.24889 | 103.30334 | 12195 ft | 375 kts | 355° |
| 2026-04-14 08:32 | 36.27473 | 103.30171 | 11946 ft | 374 kts | 355° |
| 2026-04-14 08:32 | 36.30056 | 103.30003 | 11804 ft | 373 kts | 355° |
| 2026-04-14 08:32 | 36.32678 | 103.29829 | 11800 ft | 374 kts | 355° |
| 2026-04-14 08:33 | 36.35272 | 103.29654 | 11799 ft | 374 kts | 355° |
| 2026-04-14 08:33 | 36.37839 | 103.29481 | 11799 ft | 374 kts | 355° |
| 2026-04-14 08:33 | 36.40444 | 103.29307 | 11798 ft | 374 kts | 355° |
| 2026-04-14 08:33 | 36.43012 | 103.29135 | 11798 ft | 374 kts | 355° |
| 2026-04-14 08:34 | 36.45612 | 103.28962 | 11798 ft | 374 kts | 355° |
| 2026-04-14 08:34 | 36.48203 | 103.28789 | 11798 ft | 375 kts | 355° |
| 2026-04-14 08:34 | 36.50816 | 103.28614 | 11752 ft | 375 kts | 355° |
| 2026-04-14 08:34 | 36.53416 | 103.28439 | 11502 ft | 373 kts | 355° |
| 2026-04-14 08:35 | 36.55971 | 103.28269 | 11254 ft | 372 kts | 355° |
| 2026-04-14 08:35 | 36.58560 | 103.28095 | 11002 ft | 371 kts | 356° |
| 2026-04-14 08:35 | 36.60997 | 103.27932 | 10837 ft | 370 kts | 356° |
| 2026-04-14 08:35 | 36.63544 | 103.27760 | 10831 ft | 371 kts | 356° |
| 2026-04-14 08:36 | 36.66104 | 103.27588 | 10824 ft | 360 kts | 356° |
| 2026-04-14 08:36 | 36.68524 | 103.27426 | 10821 ft | 341 kts | 355° |
| 2026-04-14 08:36 | 36.70730 | 103.27286 | 10820 ft | 324 kts | 358° |
| 2026-04-14 08:36 | 36.72880 | 103.27676 | 10806 ft | 308 kts | 20° |
| 2026-04-14 08:37 | 36.74672 | 103.28990 | 10813 ft | 292 kts | 41° |
| 2026-04-14 08:37 | 36.75901 | 103.30927 | 10815 ft | 278 kts | 63° |
| 2026-04-14 08:37 | 36.76500 | 103.33200 | 10823 ft | 277 kts | 82° |
| 2026-04-14 08:37 | 36.76662 | 103.35597 | 10829 ft | 277 kts | 87° |
| 2026-04-14 08:38 | 36.76743 | 103.38003 | 10828 ft | 277 kts | 87° |
| 2026-04-14 08:38 | 36.76827 | 103.40381 | 10828 ft | 277 kts | 87° |
| 2026-04-14 08:38 | 36.76929 | 103.42783 | 10828 ft | 277 kts | 86° |
| 2026-04-14 08:38 | 36.77036 | 103.45171 | 10760 ft | 278 kts | 87° |
| 2026-04-14 08:39 | 36.77120 | 103.47598 | 10506 ft | 276 kts | 87° |
| 2026-04-14 08:39 | 36.77195 | 103.49970 | 10258 ft | 275 kts | 88° |
| 2026-04-14 08:39 | 36.77270 | 103.52357 | 10006 ft | 273 kts | 88° |
| 2026-04-14 08:39 | 36.77346 | 103.54702 | 9855 ft | 272 kts | 88° |
| 2026-04-14 08:40 | 36.77423 | 103.57057 | 9851 ft | 273 kts | 87° |
| 2026-04-14 08:40 | 36.77368 | 103.59424 | 9835 ft | 272 kts | 104° |
| 2026-04-14 08:40 | 36.76542 | 103.61520 | 9841 ft | 271 kts | 133° |
| 2026-04-14 08:40 | 36.75066 | 103.62894 | 9642 ft | 262 kts | 161° |
| 2026-04-14 08:41 | 36.73360 | 103.63309 | 9733 ft | 246 kts | 177° |
| 2026-04-14 08:41 | 36.71733 | 103.63370 | 9723 ft | 229 kts | 180° |
| 2026-04-14 08:41 | 36.70181 | 103.63393 | 9619 ft | 214 kts | 180° |
| 2026-04-14 08:41 | 36.68760 | 103.63447 | 9315 ft | 198 kts | 178° |
| 2026-04-14 08:42 | 36.67438 | 103.63523 | 9010 ft | 184 kts | 178° |
| 2026-04-14 08:42 | 36.66204 | 103.63606 | 8735 ft | 173 kts | 177° |
| 2026-04-14 08:42 | 36.65027 | 103.63688 | 8505 ft | 168 kts | 177° |
| 2026-04-14 08:42 | 36.63896 | 103.63766 | 8332 ft | 159 kts | 177° |
| 2026-04-14 08:43 | 36.62816 | 103.63838 | 8126 ft | 157 kts | 176° |
| 2026-04-14 08:43 | 36.61730 | 103.63910 | 7923 ft | 156 kts | 176° |
| 2026-04-14 08:43 | 36.60653 | 103.63982 | 7722 ft | 155 kts | 176° |
| 2026-04-14 08:43 | 36.59539 | 103.64052 | 7463 ft | 174 kts | 179° |
| 2026-04-14 08:44 | 36.58373 | 103.63749 | 8127 ft | 169 kts | 199° |
| 2026-04-14 08:44 | 36.57304 | 103.63260 | 8595 ft | 172 kts | 198° |
| 2026-04-14 08:44 | 36.56096 | 103.62841 | 8866 ft | 190 kts | 193° |
| 2026-04-14 08:44 | 36.54758 | 103.62535 | 9203 ft | 207 kts | 189° |
| 2026-04-14 08:45 | 36.53277 | 103.62302 | 9538 ft | 226 kts | 187° |
| 2026-04-14 08:45 | 36.51785 | 103.62308 | 9785 ft | 210 kts | 168° |
| 2026-04-14 08:45 | 36.50509 | 103.63145 | 9783 ft | 207 kts | 139° |
| 2026-04-14 08:45 | 36.49507 | 103.64399 | 9801 ft | 206 kts | 140° |
| 2026-04-14 08:46 | 36.48239 | 103.65146 | 9781 ft | 203 kts | 173° |
| 2026-04-14 08:46 | 36.46843 | 103.65272 | 9799 ft | 203 kts | 173° |
| 2026-04-14 08:46 | 36.45533 | 103.65899 | 9790 ft | 205 kts | 148° |
| 2026-04-14 08:46 | 36.44452 | 103.67074 | 9805 ft | 206 kts | 137° |
| 2026-04-14 08:47 | 36.43372 | 103.68237 | 9799 ft | 205 kts | 145° |
| 2026-04-14 08:47 | 36.42218 | 103.69260 | 9800 ft | 205 kts | 147° |
| 2026-04-14 08:47 | 36.41120 | 103.70173 | 9798 ft | 205 kts | 148° |
| 2026-04-14 08:47 | 36.39918 | 103.71146 | 9798 ft | 205 kts | 148° |
| 2026-04-14 08:48 | 36.38733 | 103.72105 | 9798 ft | 205 kts | 145° |
| 2026-04-14 08:48 | 36.37817 | 103.73459 | 9778 ft | 208 kts | 114° |
| 2026-04-14 08:48 | 36.37633 | 103.75211 | 9789 ft | 208 kts | 81° |
| 2026-04-14 08:48 | 36.38232 | 103.76827 | 9795 ft | 208 kts | 50° |
| 2026-04-14 08:49 | 36.39223 | 103.78117 | 9811 ft | 208 kts | 44° |
| 2026-04-14 08:49 | 36.40267 | 103.79347 | 9803 ft | 208 kts | 43° |
| 2026-04-14 08:49 | 36.41296 | 103.80562 | 9784 ft | 199 kts | 43° |
| 2026-04-14 08:49 | 36.42352 | 103.81770 | 9798 ft | 206 kts | 34° |
| 2026-04-14 08:50 | 36.43674 | 103.82271 | 9781 ft | 205 kts | 357° |
| 2026-04-14 08:50 | 36.45091 | 103.82038 | 9811 ft | 205 kts | 347° |
| 2026-04-14 08:50 | 36.46485 | 103.81683 | 9803 ft | 205 kts | 347° |
| 2026-04-14 08:50 | 36.47889 | 103.81353 | 9797 ft | 205 kts | 348° |
| 2026-04-14 08:51 | 36.49302 | 103.81065 | 9799 ft | 206 kts | 350° |
| 2026-04-14 08:51 | 36.50716 | 103.80808 | 9798 ft | 206 kts | 351° |
| 2026-04-14 08:51 | 36.52128 | 103.80572 | 9798 ft | 206 kts | 351° |
| 2026-04-14 08:51 | 36.53569 | 103.80344 | 9798 ft | 206 kts | 351° |
| 2026-04-14 08:52 | 36.54978 | 103.80125 | 9798 ft | 206 kts | 352° |
| 2026-04-14 08:52 | 36.56402 | 103.79909 | 9797 ft | 205 kts | 352° |
| 2026-04-14 08:52 | 36.57795 | 103.79700 | 9786 ft | 198 kts | 352° |
| 2026-04-14 08:52 | 36.59144 | 103.79498 | 9792 ft | 197 kts | 352° |
| 2026-04-14 08:53 | 36.60501 | 103.79295 | 9795 ft | 197 kts | 352° |
| 2026-04-14 08:53 | 36.61856 | 103.79092 | 9798 ft | 196 kts | 352° |
| 2026-04-14 08:53 | 36.63219 | 103.78888 | 9797 ft | 195 kts | 352° |
| 2026-04-14 08:53 | 36.64573 | 103.78685 | 9798 ft | 195 kts | 352° |
| 2026-04-14 08:54 | 36.65909 | 103.78485 | 9798 ft | 195 kts | 352° |
| 2026-04-14 08:54 | 36.67269 | 103.78281 | 9798 ft | 195 kts | 352° |
| 2026-04-14 08:54 | 36.68598 | 103.78082 | 9798 ft | 195 kts | 352° |
| 2026-04-14 08:54 | 36.69956 | 103.77879 | 9798 ft | 195 kts | 352° |
| 2026-04-14 08:55 | 36.71301 | 103.77677 | 9798 ft | 195 kts | 352° |
| 2026-04-14 08:55 | 36.72632 | 103.77449 | 9795 ft | 195 kts | 344° |
| 2026-04-14 08:55 | 36.73718 | 103.76531 | 9761 ft | 191 kts | 299° |
| 2026-04-14 08:55 | 36.74197 | 103.74996 | 9816 ft | 190 kts | 286° |
| 2026-04-14 08:56 | 36.74572 | 103.73411 | 9804 ft | 190 kts | 286° |
| 2026-04-14 08:56 | 36.74971 | 103.71838 | 9801 ft | 190 kts | 288° |
| 2026-04-14 08:56 | 36.75401 | 103.70282 | 9799 ft | 190 kts | 289° |
| 2026-04-14 08:56 | 36.75847 | 103.68733 | 9798 ft | 190 kts | 286° |
| 2026-04-14 08:57 | 36.76015 | 103.67165 | 9764 ft | 173 kts | 265° |
| 2026-04-14 08:57 | 36.75733 | 103.65709 | 9797 ft | 182 kts | 245° |
| 2026-04-14 08:57 | 36.74999 | 103.64390 | 9812 ft | 189 kts | 224° |
| 2026-04-14 08:57 | 36.73856 | 103.63565 | 9806 ft | 192 kts | 198° |
| 2026-04-14 08:58 | 36.72551 | 103.63294 | 9807 ft | 192 kts | 185° |
| 2026-04-14 08:58 | 36.71258 | 103.63289 | 9728 ft | 178 kts | 179° |
| 2026-04-14 08:58 | 36.70062 | 103.63363 | 9506 ft | 171 kts | 178° |
| 2026-04-14 08:58 | 36.68905 | 103.63449 | 9300 ft | 166 kts | 178° |
| 2026-04-14 08:59 | 36.67747 | 103.63532 | 9084 ft | 168 kts | 178° |
| 2026-04-14 08:59 | 36.66577 | 103.63611 | 8857 ft | 168 kts | 178° |
| 2026-04-14 08:59 | 36.65403 | 103.63687 | 8626 ft | 168 kts | 178° |
| 2026-04-14 08:59 | 36.64254 | 103.63760 | 8402 ft | 167 kts | 178° |
| 2026-04-14 09:00 | 36.63088 | 103.63834 | 8178 ft | 166 kts | 177° |
| 2026-04-14 09:00 | 36.61943 | 103.63906 | 7958 ft | 165 kts | 177° |
| 2026-04-14 09:00 | 36.60806 | 103.63979 | 7742 ft | 165 kts | 177° |
| 2026-04-14 09:00 | 36.59670 | 103.64053 | 7524 ft | 164 kts | 177° |
| 2026-04-14 09:01 | 36.58522 | 103.64131 | 7294 ft | 164 kts | 177° |
| 2026-04-14 09:01 | 36.57394 | 103.64195 | 7089 ft | 163 kts | 178° |
| 2026-04-14 09:01 | 36.56272 | 103.64256 | 6879 ft | 163 kts | 177° |
| 2026-04-14 09:01 | 36.55141 | 103.64332 | 6657 ft | 162 kts | 176° |
| 2026-04-14 09:02 | 36.54027 | 103.64410 | 6459 ft | 162 kts | 177° |
| 2026-04-14 09:02 | 36.52967 | 103.64484 | 6397 ft | 135 kts | 177° |
| 2026-04-14 09:02 | 36.52196 | 103.64532 | 6397 ft | 87 kts | 178° |
| 2026-04-14 09:02 | 36.51763 | 103.64557 | 6397 ft | 38 kts | 177° |
| 2026-04-14 09:03 | 36.51545 | 103.64539 | 6397 ft | 29 kts | 192° |
| 2026-04-14 09:03 | 36.51404 | 103.64468 | 6397 ft | 16 kts | 207° |
| 2026-04-14 09:03 | 36.51416 | 103.64378 | 6397 ft | 10 kts | 359° |
| 2026-04-14 09:03 | 36.51489 | 103.64374 | 6397 ft | 10 kts | 358° |
| 2026-04-14 09:04 | 36.51564 | 103.64369 | 6397 ft | 10 kts | 357° |
| 2026-04-14 09:04 | 36.51641 | 103.64365 | 6397 ft | 11 kts | 357° |
| 2026-04-14 09:04 | 36.51718 | 103.64360 | 6397 ft | 11 kts | 357° |
| 2026-04-14 09:04 | 36.51796 | 103.64356 | 6397 ft | 11 kts | 357° |
| 2026-04-14 09:05 | 36.51875 | 103.64350 | 6397 ft | 11 kts | 353° |
| 2026-04-14 09:05 | 36.51924 | 103.64291 | 6397 ft | 8 kts | 274° |
| 2026-04-14 09:05 | 36.51965 | 103.64252 | 6397 ft | 8 kts | 352° |
| 2026-04-14 09:05 | 36.52026 | 103.64247 | 6397 ft | 8 kts | 357° |
| 2026-04-14 09:06 | 36.52090 | 103.64243 | 6397 ft | 9 kts | 357° |
| 2026-04-14 09:06 | 36.52142 | 103.64239 | 6397 ft | 7 kts | 357° |
| 2026-04-14 09:06 | 36.52191 | 103.64236 | 6397 ft | 7 kts | 357° |
| 2026-04-14 09:06 | 36.52237 | 103.64208 | 6397 ft | 7 kts | 290° |
| 2026-04-14 09:07 | 36.52249 | 103.64140 | 6397 ft | 8 kts | 292° |
| 2026-04-14 09:07 | 36.52283 | 103.64078 | 6397 ft | 8 kts | 308° |
| 2026-04-14 09:07 | 36.52329 | 103.64029 | 6397 ft | 9 kts | 342° |
| 2026-04-14 09:07 | 36.52394 | 103.64021 | 6397 ft | 9 kts | 357° |
| 2026-04-14 09:08 | 36.52462 | 103.64017 | 6397 ft | 9 kts | 357° |
| 2026-04-14 09:08 | 36.52530 | 103.64020 | 6397 ft | 10 kts | 15° |
| 2026-04-14 09:08 | 36.52583 | 103.64017 | 6397 ft | 8 kts | 308° |
| 2026-04-14 09:08 | 36.52607 | 103.63953 | 6397 ft | 7 kts | 293° |
| 2026-04-14 09:09 | 36.52624 | 103.63900 | 6397 ft | 4 kts | 292° |
| 2026-04-14 09:09 | 36.52636 | 103.63865 | 6397 ft | 1 kts | 292° |
| 2026-04-14 09:09 | 36.52637 | 103.63860 | 6397 ft | 0 kts | 292° |